createdAt,value
2023-01-07T00:01:01.767Z,1.8
2023-01-07T00:16:03.727Z,0
2023-01-07T00:31:05.694Z,0
2023-01-07T00:46:07.755Z,0
2023-01-07T01:01:09.862Z,0
2023-01-07T01:16:11.933Z,0
2023-01-07T01:31:14.041Z,0
2023-01-07T01:46:16.192Z,0
2023-01-07T02:01:18.317Z,0
2023-01-07T02:16:20.309Z,0
2023-01-07T02:31:22.338Z,0
2023-01-07T02:46:24.302Z,0
2023-01-07T03:01:26.381Z,0
2023-01-07T03:16:28.542Z,0
2023-01-07T03:31:30.547Z,0
2023-01-07T03:46:32.696Z,0
2023-01-07T04:01:34.813Z,0
2023-01-07T04:16:36.779Z,0
2023-01-07T04:31:38.889Z,0
2023-01-07T04:46:40.820Z,0
2023-01-07T05:01:42.974Z,18
2023-01-07T05:16:45.021Z,18
2023-01-07T05:31:46.988Z,0
2023-01-07T05:46:48.878Z,0
2023-01-07T06:01:50.799Z,0
2023-01-07T06:16:52.711Z,0
2023-01-07T06:31:54.700Z,0
2023-01-07T06:46:56.638Z,0
2023-01-07T07:01:58.725Z,0
2023-01-07T07:17:00.717Z,0
2023-01-07T07:32:02.674Z,0
2023-01-07T07:47:04.621Z,0
2023-01-07T08:02:06.618Z,0
2023-01-07T08:17:08.574Z,0
2023-01-07T08:32:10.524Z,0
2023-01-07T08:47:12.461Z,0
2023-01-07T09:02:14.524Z,0
2023-01-07T09:17:16.570Z,0
2023-01-07T09:32:18.538Z,0
2023-01-07T09:47:20.465Z,0
2023-01-07T10:02:22.446Z,0
2023-01-07T10:17:24.483Z,0
2023-01-07T10:32:26.457Z,0
2023-01-07T10:47:28.420Z,0
2023-01-07T11:02:30.736Z,0
2023-01-07T11:17:32.858Z,0
2023-01-07T11:32:34.814Z,0
2023-01-07T11:47:36.786Z,0
2023-01-07T12:02:38.845Z,0
2023-01-07T12:17:40.713Z,0
2023-01-07T12:32:42.671Z,0
2023-01-07T12:47:44.621Z,0
2023-01-07T13:02:46.605Z,0
2023-01-07T13:17:48.490Z,0
2023-01-07T13:32:50.404Z,0
2023-01-07T13:47:52.358Z,0
2023-01-07T14:02:54.465Z,0
2023-01-07T14:17:56.406Z,0
2023-01-07T14:32:58.318Z,0
2023-01-07T14:48:00.286Z,0
2023-01-07T15:03:02.380Z,0
2023-01-07T15:18:04.281Z,0
2023-01-07T15:33:06.231Z,0
2023-01-07T15:48:08.185Z,1.8
2023-01-07T16:03:10.148Z,3.6
2023-01-07T16:18:12.087Z,5.4
2023-01-07T16:33:14.061Z,10.8
2023-01-07T16:48:19.229Z,14.4
2023-01-07T17:03:21.642Z,25.2
2023-01-07T17:18:23.559Z,32.4
2023-01-07T17:33:25.442Z,37.8
2023-01-07T17:48:27.362Z,39.6
2023-01-07T18:03:29.283Z,45
2023-01-07T18:18:31.194Z,36
2023-01-07T18:33:34.622Z,43.2
2023-01-07T18:48:37.149Z,50.4
2023-01-07T19:03:39.117Z,66.6
2023-01-07T19:18:41.099Z,77.4
2023-01-07T19:33:43.027Z,73.8
2023-01-07T19:48:44.938Z,63
2023-01-07T20:03:46.858Z,64.8
2023-01-07T20:18:48.761Z,84.6
2023-01-07T20:33:50.663Z,113.4
2023-01-07T20:48:52.618Z,102.6
2023-01-07T21:03:54.568Z,102.6
2023-01-07T21:18:56.480Z,88.2
2023-01-07T21:33:58.405Z,72
2023-01-07T21:49:00.342Z,75.6
2023-01-07T22:04:02.359Z,55.8
2023-01-07T22:19:04.543Z,41.4
2023-01-07T22:34:06.464Z,32.4
2023-01-07T22:49:08.386Z,28.8
2023-01-07T23:04:10.395Z,25.2
2023-01-07T23:19:12.608Z,16.2
2023-01-07T23:34:14.614Z,14.4
2023-01-07T23:49:16.547Z,3.6
